createdAt,value
2023-05-04T00:02:10.155Z,8.00
2023-05-04T00:04:36.992Z,8.13
2023-05-04T00:07:04.625Z,8.10
2023-05-04T00:09:31.737Z,8.13
2023-05-04T00:11:58.457Z,9.00
2023-05-04T00:14:25.188Z,8.53
2023-05-04T00:16:51.902Z,7.60
2023-05-04T00:19:19.588Z,7.93
2023-05-04T00:21:46.201Z,7.43
2023-05-04T00:24:13.166Z,7.07
2023-05-04T00:26:40.553Z,7.70
2023-05-04T00:29:07.622Z,7.17
2023-05-04T00:31:35.176Z,6.90
2023-05-04T00:34:02.477Z,7.40
2023-05-04T00:36:29.192Z,7.50
2023-05-04T00:38:56.289Z,7.10
2023-05-04T00:41:23.292Z,7.17
2023-05-04T00:43:50.592Z,7.00
2023-05-04T00:46:17.444Z,8.40
2023-05-04T00:48:48.875Z,7.30
2023-05-04T00:51:16.885Z,7.07
2023-05-04T00:53:44.273Z,7.50
2023-05-04T00:56:11.799Z,8.03
2023-05-04T00:58:39.211Z,7.07
2023-05-04T01:01:05.958Z,7.13
2023-05-04T01:03:33.817Z,7.50
2023-05-04T01:06:30.703Z,6.77
2023-05-04T01:09:11.139Z,6.83
2023-05-04T01:11:44.588Z,7.30
2023-05-04T01:14:14.970Z,7.63
2023-05-04T01:16:41.507Z,7.07
2023-05-04T01:19:08.459Z,7.33
2023-05-04T01:21:37.143Z,7.03
2023-05-04T01:24:04.162Z,7.07
2023-05-04T01:26:36.818Z,6.73
2023-05-04T01:29:14.582Z,8.00
2023-05-04T01:31:43.383Z,7.00
2023-05-04T01:34:11.318Z,7.10
2023-05-04T01:36:38.807Z,7.27
2023-05-04T01:39:05.954Z,7.07
2023-05-04T01:41:32.638Z,7.10
2023-05-04T01:44:00.397Z,7.13
2023-05-04T01:46:30.053Z,7.10
2023-05-04T01:48:56.548Z,7.17
2023-05-04T01:51:22.997Z,7.60
2023-05-04T01:53:49.687Z,7.10
2023-05-04T01:56:16.608Z,7.27
2023-05-04T01:58:43.027Z,6.93
2023-05-04T02:01:09.496Z,7.20
2023-05-04T02:03:36.472Z,7.23
2023-05-04T02:06:03.122Z,7.77
2023-05-04T02:08:31.438Z,8.63
2023-05-04T02:10:58.252Z,7.77
2023-05-04T02:13:24.958Z,8.37
2023-05-04T02:15:52.149Z,6.93
2023-05-04T02:18:18.627Z,7.47
2023-05-04T02:20:45.297Z,7.00
2023-05-04T02:23:11.704Z,7.63
2023-05-04T02:25:44.376Z,8.20
2023-05-04T02:28:11.089Z,6.97
2023-05-04T02:30:37.889Z,7.20
2023-05-04T02:33:04.507Z,7.50
2023-05-04T02:35:31.881Z,7.57
2023-05-04T02:37:58.409Z,6.90
2023-05-04T02:40:25.125Z,7.13
2023-05-04T02:42:52.175Z,6.93
2023-05-04T02:45:18.918Z,6.93
2023-05-04T02:47:46.642Z,7.67
2023-05-04T02:50:16.904Z,7.33
2023-05-04T02:52:45.752Z,7.20
2023-05-04T02:55:12.796Z,7.23
2023-05-04T02:57:39.808Z,6.77
2023-05-04T03:00:07.457Z,6.87
2023-05-04T03:02:36.777Z,7.07
2023-05-04T03:05:03.495Z,6.63
2023-05-04T03:07:30.317Z,7.10
2023-05-04T03:09:57.029Z,7.33
2023-05-04T03:12:27.247Z,8.10
2023-05-04T03:14:53.667Z,7.87
2023-05-04T03:17:21.621Z,7.53
2023-05-04T03:19:48.052Z,7.20
2023-05-04T03:22:15.128Z,7.33
2023-05-04T03:24:41.578Z,7.73
2023-05-04T03:27:08.278Z,6.90
2023-05-04T03:29:35.583Z,7.57
2023-05-04T03:32:06.117Z,8.23
2023-05-04T03:34:32.690Z,8.23
2023-05-04T03:37:01.115Z,7.23
2023-05-04T03:39:27.630Z,7.80
2023-05-04T03:41:54.157Z,7.20
2023-05-04T03:44:20.884Z,7.63
2023-05-04T03:46:47.346Z,7.83
2023-05-04T03:49:14.146Z,7.50
2023-05-04T03:51:41.312Z,7.50
2023-05-04T03:54:08.315Z,7.63
2023-05-04T03:56:35.000Z,7.43
2023-05-04T03:59:02.233Z,7.17
2023-05-04T04:01:28.790Z,8.30
2023-05-04T04:03:55.552Z,7.70
2023-05-04T04:06:23.030Z,7.60
2023-05-04T04:08:51.038Z,7.93
2023-05-04T04:11:17.729Z,8.40
2023-05-04T04:13:44.202Z,9.47
2023-05-04T04:16:10.924Z,7.77
2023-05-04T04:18:38.129Z,7.47
2023-05-04T04:21:04.579Z,7.37
2023-05-04T04:23:30.998Z,8.03
2023-05-04T04:25:58.425Z,7.73
2023-05-04T04:28:24.883Z,7.93
2023-05-04T04:30:51.664Z,7.87
2023-05-04T04:33:18.108Z,7.87
2023-05-04T04:35:45.369Z,7.80
2023-05-04T04:38:12.216Z,8.10
2023-05-04T04:40:38.640Z,8.67
2023-05-04T04:43:05.874Z,8.73
2023-05-04T04:45:33.793Z,7.80
2023-05-04T04:48:01.255Z,7.43
2023-05-04T04:50:29.495Z,8.63
2023-05-04T04:52:56.339Z,8.13
2023-05-04T04:55:23.950Z,8.50
2023-05-04T04:57:51.219Z,8.30
2023-05-04T05:00:18.593Z,8.10
2023-05-04T05:02:45.650Z,9.00
2023-05-04T05:05:13.292Z,8.67
2023-05-04T05:07:40.059Z,8.90
2023-05-04T05:10:08.947Z,8.40
2023-05-04T05:12:35.761Z,8.90
2023-05-04T05:15:04.443Z,8.23
2023-05-04T05:17:31.401Z,9.50
2023-05-04T05:19:58.130Z,9.57
2023-05-04T05:22:24.855Z,8.70
2023-05-04T05:24:51.536Z,9.37
2023-05-04T05:27:18.301Z,8.83
2023-05-04T05:29:45.122Z,9.57
2023-05-04T05:32:11.908Z,9.60
2023-05-04T05:34:38.973Z,10.07
2023-05-04T05:37:06.055Z,8.83
2023-05-04T05:39:32.764Z,9.10
2023-05-04T05:41:59.686Z,9.50
2023-05-04T05:44:26.525Z,8.50
2023-05-04T05:46:53.205Z,9.30
2023-05-04T05:49:19.790Z,9.80
2023-05-04T05:51:46.855Z,9.00
2023-05-04T05:54:13.593Z,9.00
2023-05-04T05:56:40.308Z,8.13
2023-05-04T05:59:07.630Z,8.70
2023-05-04T06:01:34.376Z,8.50
2023-05-04T06:04:01.341Z,9.30
2023-05-04T06:06:27.884Z,8.70
2023-05-04T06:08:57.536Z,9.43
2023-05-04T06:11:24.148Z,8.70
2023-05-04T06:13:50.645Z,9.33
2023-05-04T06:16:17.258Z,8.20
2023-05-04T06:18:43.823Z,8.33
2023-05-04T06:21:11.268Z,9.20
2023-05-04T06:23:37.925Z,8.80
2023-05-04T06:26:06.167Z,8.17
2023-05-04T06:28:32.890Z,8.70
2023-05-04T06:30:59.434Z,8.37
2023-05-04T06:33:27.561Z,8.43
2023-05-04T06:35:54.311Z,8.83
2023-05-04T06:38:21.576Z,7.90
2023-05-04T06:40:48.632Z,8.10
2023-05-04T06:43:15.362Z,8.00
2023-05-04T06:45:43.242Z,8.10
2023-05-04T06:48:09.984Z,8.40
2023-05-04T06:50:36.506Z,8.00
2023-05-04T06:53:04.830Z,8.67
2023-05-04T06:55:32.112Z,8.23
2023-05-04T06:57:58.644Z,9.13
2023-05-04T07:00:26.149Z,9.20
2023-05-04T07:02:53.915Z,9.57
2023-05-04T07:05:24.207Z,8.73
2023-05-04T07:07:51.476Z,8.93
2023-05-04T07:10:19.428Z,8.50
2023-05-04T07:12:46.718Z,8.90
2023-05-04T07:15:13.213Z,8.23
2023-05-04T07:17:40.465Z,8.93
2023-05-04T07:20:07.737Z,8.40
2023-05-04T07:22:34.576Z,7.70
2023-05-04T07:25:03.392Z,8.73
2023-05-04T07:27:30.692Z,8.17
2023-05-04T07:29:57.599Z,7.80
2023-05-04T07:32:24.553Z,8.03
2023-05-04T07:34:51.183Z,8.23
2023-05-04T07:37:20.208Z,7.93
2023-05-04T07:39:46.995Z,8.10
2023-05-04T07:42:13.720Z,7.55
2023-05-04T07:44:41.316Z,7.70
2023-05-04T07:47:07.872Z,7.55
2023-05-04T07:49:34.354Z,7.60
2023-05-04T07:52:00.949Z,7.17
2023-05-04T07:54:27.414Z,7.65
2023-05-04T07:56:53.901Z,7.47
2023-05-04T07:59:21.009Z,8.38
2023-05-04T08:01:48.253Z,7.20
2023-05-04T08:04:14.676Z,7.57
2023-05-04T08:06:42.004Z,8.07
2023-05-04T08:09:09.284Z,7.80
2023-05-04T08:11:36.085Z,7.70
2023-05-04T08:14:02.897Z,7.00
2023-05-04T08:16:30.050Z,7.43
2023-05-04T08:18:57.538Z,7.80
2023-05-04T08:21:24.226Z,7.80
2023-05-04T08:23:51.506Z,7.83
2023-05-04T08:26:17.917Z,6.60
2023-05-04T08:28:46.171Z,7.20
2023-05-04T08:31:13.403Z,7.93
2023-05-04T08:33:40.343Z,7.70
2023-05-04T08:36:08.423Z,7.27
2023-05-04T08:38:35.459Z,7.00
2023-05-04T08:41:06.525Z,7.10
2023-05-04T08:43:36.728Z,6.57
2023-05-04T08:46:05.427Z,6.67
2023-05-04T08:48:34.019Z,6.43
2023-05-04T08:51:02.026Z,6.50
2023-05-04T08:53:31.460Z,6.70
2023-05-04T08:56:04.743Z,6.77
2023-05-04T08:58:31.804Z,6.90
2023-05-04T09:01:01.304Z,5.93
2023-05-04T09:03:29.743Z,6.37
2023-05-04T09:05:58.836Z,6.80
2023-05-04T09:08:25.594Z,6.57
2023-05-04T09:10:52.319Z,6.60
2023-05-04T09:13:18.863Z,5.77
2023-05-04T09:15:59.175Z,5.97
2023-05-04T09:18:43.700Z,6.97
2023-05-04T09:21:11.832Z,5.53
2023-05-04T09:23:54.040Z,4.87
2023-05-04T09:26:27.894Z,5.70
2023-05-04T09:28:54.634Z,5.67
2023-05-04T09:31:21.430Z,5.70
2023-05-04T09:33:48.106Z,4.57
2023-05-04T09:36:17.393Z,4.80
2023-05-04T09:38:44.396Z,4.80
2023-05-04T09:41:10.931Z,4.83
2023-05-04T09:43:41.829Z,4.70
2023-05-04T09:46:17.222Z,6.00
2023-05-04T09:48:55.080Z,5.40
2023-05-04T09:51:27.308Z,5.90
2023-05-04T09:53:54.068Z,6.10
2023-05-04T09:56:29.731Z,6.07
2023-05-04T09:59:00.237Z,5.57
2023-05-04T10:01:30.981Z,5.97
2023-05-04T10:03:58.224Z,5.43
2023-05-04T10:06:24.989Z,5.63
2023-05-04T10:08:52.252Z,5.23
2023-05-04T10:11:20.263Z,5.60
2023-05-04T10:13:49.723Z,5.97
2023-05-04T10:16:54.101Z,5.57
2023-05-04T10:20:05.812Z,5.90
2023-05-04T10:22:47.683Z,5.90
2023-05-04T10:25:35.473Z,5.70
2023-05-04T10:28:23.651Z,6.10
2023-05-04T10:30:56.971Z,5.47
2023-05-04T10:33:24.399Z,5.65
2023-05-04T10:35:55.436Z,5.20
2023-05-04T10:38:39.438Z,5.80
2023-05-04T10:41:20.518Z,6.00
2023-05-04T10:43:53.516Z,6.63
2023-05-04T10:46:23.985Z,6.23
2023-05-04T10:48:59.483Z,6.03
2023-05-04T10:51:35.696Z,5.20
2023-05-04T10:54:18.020Z,4.70
2023-05-04T10:56:44.447Z,5.13
2023-05-04T10:59:11.017Z,4.60
2023-05-04T11:01:46.579Z,4.70
2023-05-04T11:04:22.929Z,5.73
2023-05-04T11:07:03.415Z,5.43
2023-05-04T11:09:38.996Z,5.17
2023-05-04T11:12:07.096Z,5.60
2023-05-04T11:14:38.059Z,5.13
2023-05-04T11:17:27.731Z,5.50
2023-05-04T11:19:55.937Z,5.80
2023-05-04T11:22:22.542Z,6.10
2023-05-04T11:24:49.255Z,6.10
2023-05-04T11:27:25.576Z,5.43
2023-05-04T11:30:04.768Z,5.30
2023-05-04T11:32:46.943Z,4.38
2023-05-04T11:35:18.880Z,4.40
2023-05-04T11:37:48.240Z,4.60
2023-05-04T11:40:21.326Z,4.00
2023-05-04T11:42:50.243Z,5.05
2023-05-04T11:45:18.133Z,4.03
2023-05-04T11:47:47.225Z,4.43
2023-05-04T11:50:17.042Z,4.28
2023-05-04T11:52:44.769Z,3.60
2023-05-04T11:55:13.495Z,3.00
2023-05-04T11:57:40.354Z,3.90
2023-05-04T12:00:08.706Z,3.63
2023-05-04T12:02:36.179Z,3.63
2023-05-04T12:05:03.412Z,3.70
2023-05-04T12:07:29.941Z,3.63
2023-05-04T12:09:57.374Z,3.00
2023-05-04T12:12:35.217Z,2.58
2023-05-04T12:15:02.006Z,2.90
2023-05-04T12:17:39.504Z,3.35
2023-05-04T12:20:06.664Z,3.53
2023-05-04T12:22:35.438Z,3.30
2023-05-04T12:25:02.663Z,2.88
2023-05-04T12:27:29.071Z,2.90
2023-05-04T12:29:55.991Z,5.10
2023-05-04T12:32:22.570Z,3.38
2023-05-04T12:34:49.113Z,2.72
2023-05-04T12:37:15.849Z,2.58
2023-05-04T12:39:42.606Z,2.88
2023-05-04T12:42:09.112Z,2.78
2023-05-04T12:44:35.716Z,3.20
2023-05-04T12:47:02.100Z,2.78
2023-05-04T12:49:28.486Z,2.60
2023-05-04T12:51:57.776Z,2.47
2023-05-04T12:54:24.586Z,2.75
2023-05-04T12:56:51.364Z,2.65
2023-05-04T12:59:18.069Z,3.00
2023-05-04T13:01:44.653Z,3.17
2023-05-04T13:04:11.141Z,3.15
2023-05-04T13:06:37.749Z,3.00
2023-05-04T13:09:06.187Z,3.10
2023-05-04T13:11:32.701Z,2.92
2023-05-04T13:13:59.413Z,3.00
2023-05-04T13:16:28.167Z,2.92
2023-05-04T13:18:55.574Z,2.78
2023-05-04T13:21:22.645Z,2.50
2023-05-04T13:23:49.328Z,2.70
2023-05-04T13:26:16.008Z,2.50
2023-05-04T13:28:42.642Z,2.33
2023-05-04T13:31:10.174Z,2.60
2023-05-04T13:33:38.932Z,2.72
2023-05-04T13:36:07.041Z,2.65
2023-05-04T13:38:33.785Z,2.50
2023-05-04T13:41:00.297Z,2.15
2023-05-04T13:43:27.113Z,2.63
2023-05-04T13:45:53.543Z,2.55
2023-05-04T13:48:20.401Z,2.40
2023-05-04T13:50:46.902Z,2.60
2023-05-04T13:53:14.126Z,2.35
2023-05-04T13:55:40.951Z,2.35
2023-05-04T13:58:07.473Z,2.67
2023-05-04T14:00:33.926Z,2.80
2023-05-04T14:03:00.875Z,2.83
2023-05-04T14:05:27.641Z,3.05
2023-05-04T14:07:54.110Z,2.30
2023-05-04T14:10:21.346Z,2.63
2023-05-04T14:12:48.096Z,2.90
2023-05-04T14:15:16.662Z,2.70
2023-05-04T14:17:43.564Z,2.83
2023-05-04T14:20:13.208Z,2.20
2023-05-04T14:22:42.064Z,2.50
2023-05-04T14:25:09.573Z,2.83
2023-05-04T14:27:36.301Z,2.55
2023-05-04T14:30:04.105Z,2.30
2023-05-04T14:32:30.923Z,1.98
2023-05-04T14:35:06.658Z,2.20
2023-05-04T14:37:36.772Z,1.88
2023-05-04T14:40:13.570Z,2.20
2023-05-04T14:42:40.702Z,2.10
2023-05-04T14:45:08.433Z,2.38
2023-05-04T14:47:35.325Z,2.30
2023-05-04T14:50:03.329Z,2.40
2023-05-04T14:52:29.816Z,2.13
2023-05-04T14:54:56.269Z,2.20
2023-05-04T14:57:22.685Z,2.00
2023-05-04T14:59:49.196Z,2.03
2023-05-04T15:02:16.420Z,2.10
2023-05-04T15:04:44.098Z,1.75
2023-05-04T15:07:10.686Z,2.08
2023-05-04T15:09:38.193Z,2.50
2023-05-04T15:12:05.074Z,2.30
2023-05-04T15:14:31.828Z,2.60
2023-05-04T15:16:58.622Z,2.35
2023-05-04T15:19:25.131Z,2.75
2023-05-04T15:21:51.930Z,2.70
2023-05-04T15:24:18.696Z,2.10
2023-05-04T15:26:46.277Z,2.60
2023-05-04T15:29:12.884Z,2.30
2023-05-04T15:31:39.547Z,2.80
2023-05-04T15:34:06.001Z,2.30
2023-05-04T15:36:32.433Z,2.17
2023-05-04T15:38:58.858Z,2.28
2023-05-04T15:41:26.498Z,2.60
2023-05-04T15:43:52.956Z,2.30
2023-05-04T15:46:19.807Z,2.50
2023-05-04T15:48:46.196Z,2.22
2023-05-04T15:51:12.697Z,2.47
2023-05-04T15:53:39.719Z,2.50
2023-05-04T15:56:06.505Z,2.90
2023-05-04T15:58:33.606Z,2.70
2023-05-04T16:01:04.159Z,2.80
2023-05-04T16:03:32.040Z,2.42
2023-05-04T16:05:58.841Z,2.60
2023-05-04T16:08:25.899Z,2.95
2023-05-04T16:10:53.503Z,2.70
2023-05-04T16:13:20.941Z,2.70
2023-05-04T16:15:52.631Z,2.22
2023-05-04T16:18:19.545Z,2.70
2023-05-04T16:20:47.370Z,2.78
2023-05-04T16:23:17.749Z,3.30
2023-05-04T16:25:44.430Z,2.80
2023-05-04T16:28:11.190Z,2.70
2023-05-04T16:30:38.194Z,2.70
2023-05-04T16:33:04.834Z,2.55
2023-05-04T16:35:32.635Z,2.60
2023-05-04T16:37:59.352Z,2.65
2023-05-04T16:40:26.630Z,2.78
2023-05-04T16:42:53.014Z,2.45
2023-05-04T16:45:19.724Z,2.83
2023-05-04T16:47:46.931Z,2.85
2023-05-04T16:50:14.284Z,2.72
2023-05-04T16:52:41.243Z,2.78
2023-05-04T16:55:11.360Z,2.60
2023-05-04T16:57:38.718Z,2.95
2023-05-04T17:00:07.069Z,2.60
2023-05-04T17:02:34.007Z,2.80
2023-05-04T17:05:00.788Z,2.60
2023-05-04T17:07:27.495Z,2.58
2023-05-04T17:09:54.157Z,2.70
2023-05-04T17:12:23.204Z,2.50
2023-05-04T17:14:50.083Z,2.70
2023-05-04T17:17:16.636Z,2.53
2023-05-04T17:19:43.146Z,2.60
2023-05-04T17:22:11.409Z,2.50
2023-05-04T17:24:37.914Z,2.83
2023-05-04T17:27:05.005Z,2.90
2023-05-04T17:29:31.692Z,2.80
2023-05-04T17:31:58.288Z,2.70
2023-05-04T17:34:25.087Z,2.72
2023-05-04T17:36:51.610Z,2.60
2023-05-04T17:39:18.709Z,2.75
2023-05-04T17:41:48.803Z,2.92
2023-05-04T17:44:16.591Z,2.42
2023-05-04T17:46:43.254Z,3.28
2023-05-04T17:49:10.581Z,2.80
2023-05-04T17:51:37.426Z,3.33
2023-05-04T17:54:03.991Z,2.88
2023-05-04T17:56:30.763Z,3.10
2023-05-04T17:58:57.128Z,3.03
2023-05-04T18:01:26.859Z,3.20
2023-05-04T18:03:53.996Z,3.03
2023-05-04T18:06:20.476Z,3.40
2023-05-04T18:08:46.973Z,3.60
2023-05-04T18:11:13.487Z,3.50
2023-05-04T18:13:39.915Z,3.60
2023-05-04T18:16:07.364Z,3.38
2023-05-04T18:18:33.830Z,3.10
2023-05-04T18:21:01.340Z,2.95
2023-05-04T18:23:28.383Z,3.05
2023-05-04T18:25:55.551Z,3.20
2023-05-04T18:28:22.300Z,3.20
2023-05-04T18:30:48.967Z,3.08
2023-05-04T18:33:15.400Z,3.08
2023-05-04T18:35:41.951Z,3.10
2023-05-04T18:38:08.396Z,2.90
2023-05-04T18:40:34.897Z,2.97
2023-05-04T18:43:03.628Z,3.20
2023-05-04T18:45:30.072Z,3.30
2023-05-04T18:47:56.850Z,3.05
2023-05-04T18:50:23.534Z,3.53
2023-05-04T18:52:50.221Z,3.63
2023-05-04T18:55:16.722Z,3.20
2023-05-04T18:57:43.659Z,3.72
2023-05-04T19:00:11.635Z,3.75
2023-05-04T19:02:38.504Z,3.88
2023-05-04T19:05:05.547Z,3.92
2023-05-04T19:07:32.615Z,3.60
2023-05-04T19:10:00.073Z,3.80
2023-05-04T19:12:27.135Z,3.70
2023-05-04T19:14:54.578Z,3.47
2023-05-04T19:17:21.182Z,3.60
2023-05-04T19:19:47.625Z,3.58
2023-05-04T19:22:15.789Z,3.63
2023-05-04T19:24:42.306Z,3.80
2023-05-04T19:27:09.369Z,3.97
2023-05-04T19:29:36.162Z,3.70
2023-05-04T19:32:12.137Z,3.83
2023-05-04T19:34:46.655Z,3.78
2023-05-04T19:37:13.337Z,3.83
2023-05-04T19:39:40.111Z,3.70
2023-05-04T19:42:06.550Z,3.55
2023-05-04T19:44:33.273Z,3.80
2023-05-04T19:47:01.778Z,3.70
2023-05-04T19:49:28.352Z,3.95
2023-05-04T19:51:54.872Z,3.80
2023-05-04T19:54:21.274Z,4.05
2023-05-04T19:56:47.971Z,4.30
2023-05-04T19:59:15.086Z,4.05
2023-05-04T20:01:43.791Z,3.95
2023-05-04T20:04:10.796Z,4.57
2023-05-04T20:06:37.420Z,4.50
2023-05-04T20:09:04.124Z,4.35
2023-05-04T20:11:30.873Z,4.70
2023-05-04T20:13:57.623Z,4.60
2023-05-04T20:16:24.153Z,4.55
2023-05-04T20:18:50.918Z,4.33
2023-05-04T20:21:17.670Z,3.80
2023-05-04T20:23:44.368Z,4.30
2023-05-04T20:26:10.818Z,4.18
2023-05-04T20:28:37.512Z,4.10
2023-05-04T20:31:04.997Z,4.70
2023-05-04T20:33:31.431Z,4.80
2023-05-04T20:35:58.270Z,5.00
2023-05-04T20:38:25.460Z,4.90
2023-05-04T20:40:52.685Z,3.90
2023-05-04T20:43:19.805Z,4.00
2023-05-04T20:45:48.838Z,3.63
2023-05-04T20:48:15.268Z,3.40
2023-05-04T20:50:42.615Z,3.53
2023-05-04T20:53:09.019Z,3.30
2023-05-04T20:55:36.707Z,3.73
2023-05-04T20:58:03.196Z,3.87
2023-05-04T21:00:31.860Z,4.33
2023-05-04T21:03:00.177Z,4.20
2023-05-04T21:05:27.995Z,4.37
2023-05-04T21:07:54.632Z,4.37
2023-05-04T21:10:21.179Z,4.90
2023-05-04T21:12:49.085Z,4.63
2023-05-04T21:15:17.820Z,4.97
2023-05-04T21:17:44.526Z,5.00
2023-05-04T21:20:11.149Z,5.27
2023-05-04T21:22:37.577Z,5.27
2023-05-04T21:25:04.587Z,5.13
2023-05-04T21:27:31.038Z,5.10
2023-05-04T21:29:58.420Z,5.80
2023-05-04T21:32:25.145Z,5.10
2023-05-04T21:34:52.628Z,5.40
2023-05-04T21:37:19.603Z,5.67
2023-05-04T21:39:46.557Z,5.80
2023-05-04T21:42:13.307Z,5.50
2023-05-04T21:44:39.752Z,5.40
2023-05-04T21:47:07.489Z,5.30
2023-05-04T21:49:34.209Z,5.40
2023-05-04T21:52:00.747Z,5.23
2023-05-04T21:54:27.488Z,4.80
2023-05-04T21:56:54.145Z,5.13
2023-05-04T21:59:20.712Z,5.50
2023-05-04T22:01:47.422Z,5.90
2023-05-04T22:04:15.674Z,5.77
2023-05-04T22:06:42.053Z,6.03
2023-05-04T22:09:09.008Z,6.00
2023-05-04T22:11:36.020Z,6.03
2023-05-04T22:14:03.023Z,6.53
2023-05-04T22:16:29.469Z,6.17
2023-05-04T22:18:56.221Z,5.47
2023-05-04T22:21:22.698Z,5.60
2023-05-04T22:23:49.395Z,5.60
2023-05-04T22:26:15.973Z,5.50
2023-05-04T22:28:42.449Z,5.30
2023-05-04T22:31:09.037Z,5.93
2023-05-04T22:33:36.670Z,4.90
2023-05-04T22:36:03.354Z,5.30
2023-05-04T22:38:32.430Z,5.37
2023-05-04T22:40:59.164Z,5.10
2023-05-04T22:43:26.191Z,5.40
2023-05-04T22:45:52.974Z,4.80
2023-05-04T22:48:20.080Z,4.77
2023-05-04T22:50:47.108Z,4.70
2023-05-04T22:53:15.343Z,5.37
2023-05-04T22:55:41.816Z,5.23
2023-05-04T22:58:08.815Z,5.30
2023-05-04T23:00:35.397Z,5.20
2023-05-04T23:03:02.211Z,5.07
2023-05-04T23:05:29.114Z,5.33
2023-05-04T23:07:55.498Z,5.17
2023-05-04T23:10:22.252Z,5.20
2023-05-04T23:12:48.980Z,5.03
2023-05-04T23:15:15.711Z,4.80
2023-05-04T23:17:42.215Z,5.30
2023-05-04T23:20:10.326Z,4.60
2023-05-04T23:22:37.214Z,4.77
2023-05-04T23:25:04.557Z,4.77
2023-05-04T23:27:31.260Z,5.00
2023-05-04T23:29:57.925Z,4.73
2023-05-04T23:32:25.211Z,4.83
2023-05-04T23:34:51.939Z,5.40
2023-05-04T23:37:18.617Z,5.57
2023-05-04T23:39:47.018Z,5.20
2023-05-04T23:42:13.734Z,4.60
2023-05-04T23:44:40.751Z,5.33
2023-05-04T23:47:07.943Z,4.97
2023-05-04T23:49:34.609Z,4.87
2023-05-04T23:52:01.096Z,4.60
2023-05-04T23:54:27.576Z,5.00
2023-05-04T23:56:55.291Z,4.97
2023-05-04T23:59:22.436Z,4.90
